createdAt,value
2022-10-28T00:01:21.125Z,57.90
2022-10-28T00:03:55.160Z,59.07
2022-10-28T00:06:30.480Z,59.46
2022-10-28T00:08:58.752Z,59.30
2022-10-28T00:11:29.420Z,59.00
2022-10-28T00:13:58.680Z,58.49
2022-10-28T00:16:29.408Z,59.20
2022-10-28T00:18:59.330Z,60.01
2022-10-28T00:21:30.174Z,60.78
2022-10-28T00:23:58.029Z,60.93
2022-10-28T00:26:29.273Z,61.80
2022-10-28T00:29:04.004Z,65.90
2022-10-28T00:31:32.079Z,70.02
2022-10-28T00:34:01.168Z,71.59
2022-10-28T00:36:34.460Z,71.51
2022-10-28T00:39:03.759Z,70.46
2022-10-28T00:41:34.809Z,68.68
2022-10-28T00:44:52.431Z,67.51
2022-10-28T00:47:40.775Z,65.68
2022-10-28T00:50:46.279Z,64.75
2022-10-28T00:53:26.478Z,63.77
2022-10-28T00:55:54.291Z,63.44
2022-10-28T00:58:23.336Z,63.00
2022-10-28T01:00:51.202Z,62.35
2022-10-28T01:03:18.966Z,62.44
2022-10-28T01:05:48.163Z,62.23
2022-10-28T01:08:16.027Z,62.03
2022-10-28T01:11:15.350Z,61.83
2022-10-28T01:14:44.245Z,61.66
2022-10-28T01:18:03.393Z,60.78
2022-10-28T01:20:58.505Z,59.84
2022-10-28T01:23:53.295Z,57.55
2022-10-28T01:27:01.231Z,56.66
2022-10-28T01:29:56.916Z,58.06
2022-10-28T01:32:59.188Z,60.73
2022-10-28T01:35:55.943Z,59.06
2022-10-28T01:38:40.489Z,58.80
2022-10-28T01:41:12.965Z,61.29
2022-10-28T01:43:49.532Z,61.25
2022-10-28T01:46:41.313Z,64.89
2022-10-28T01:49:51.927Z,70.78
2022-10-28T01:52:24.604Z,69.63
2022-10-28T01:54:59.292Z,67.83
2022-10-28T01:57:26.994Z,66.46
2022-10-28T01:59:54.754Z,65.24
2022-10-28T02:02:22.529Z,64.67
2022-10-28T02:04:50.282Z,63.66
2022-10-28T02:07:18.048Z,63.36
2022-10-28T02:10:02.499Z,62.38
2022-10-28T02:12:32.231Z,61.73
2022-10-28T02:15:30.485Z,61.48
2022-10-28T02:18:31.942Z,61.55
2022-10-28T02:21:03.331Z,60.26
2022-10-28T02:24:11.448Z,60.36
2022-10-28T02:26:47.150Z,60.04
2022-10-28T02:29:28.233Z,59.68
2022-10-28T02:31:59.978Z,59.09
2022-10-28T02:34:32.349Z,57.54
2022-10-28T02:37:03.139Z,58.20
2022-10-28T02:39:38.535Z,59.07
2022-10-28T02:42:20.258Z,60.31
2022-10-28T02:44:51.049Z,60.96
2022-10-28T02:47:22.581Z,65.87
2022-10-28T02:49:57.937Z,68.43
2022-10-28T02:52:27.141Z,66.49
2022-10-28T02:54:57.197Z,64.98
2022-10-28T02:57:36.594Z,64.27
2022-10-28T03:00:30.981Z,63.29
2022-10-28T03:02:58.744Z,62.66
2022-10-28T03:05:26.608Z,62.38
2022-10-28T03:07:54.577Z,61.40
2022-10-28T03:10:22.627Z,60.91
2022-10-28T03:12:50.344Z,60.84
2022-10-28T03:15:18.176Z,60.19
2022-10-28T03:17:46.160Z,60.04
2022-10-28T03:20:14.008Z,60.00
2022-10-28T03:22:44.641Z,58.76
2022-10-28T03:25:12.366Z,57.65
2022-10-28T03:27:41.427Z,58.67
2022-10-28T03:30:10.082Z,60.57
2022-10-28T03:32:37.944Z,59.13
2022-10-28T03:35:07.243Z,59.19
2022-10-28T03:37:34.940Z,60.04
2022-10-28T03:40:07.899Z,61.00
2022-10-28T03:42:38.846Z,60.91
2022-10-28T03:45:09.559Z,61.80
2022-10-28T03:47:37.425Z,66.53
2022-10-28T03:50:05.940Z,70.41
2022-10-28T03:52:34.489Z,70.62
2022-10-28T03:55:02.357Z,69.24
2022-10-28T03:57:31.858Z,67.95
2022-10-28T03:59:59.576Z,67.29
2022-10-28T04:02:27.538Z,65.95
2022-10-28T04:04:55.562Z,65.28
2022-10-28T04:07:24.038Z,64.81
2022-10-28T04:09:51.902Z,64.44
2022-10-28T04:12:19.669Z,63.14
2022-10-28T04:14:47.532Z,62.37
2022-10-28T04:17:15.602Z,61.38
2022-10-28T04:19:43.366Z,61.25
2022-10-28T04:22:11.093Z,61.13
2022-10-28T04:24:38.892Z,60.92
2022-10-28T04:27:06.654Z,60.51
2022-10-28T04:29:34.523Z,60.52
2022-10-28T04:32:02.488Z,60.42
2022-10-28T04:34:30.252Z,60.18
2022-10-28T04:36:58.016Z,60.07
2022-10-28T04:39:26.190Z,60.29
2022-10-28T04:41:54.056Z,59.96
2022-10-28T04:44:21.919Z,58.08
2022-10-28T04:46:49.656Z,57.74
2022-10-28T04:49:17.336Z,58.95
2022-10-28T04:54:17.785Z,57.89
2022-10-28T04:56:45.746Z,59.49
2022-10-28T04:59:13.720Z,60.81
2022-10-28T05:01:41.557Z,67.38
2022-10-28T05:04:09.557Z,69.99
2022-10-28T05:06:37.729Z,69.01
2022-10-28T05:09:05.468Z,67.84
2022-10-28T05:11:33.562Z,66.88
2022-10-28T05:14:01.328Z,65.91
2022-10-28T05:16:29.046Z,65.27
2022-10-28T05:18:57.673Z,63.80
2022-10-28T05:21:25.536Z,63.20
2022-10-28T05:23:53.219Z,62.98
2022-10-28T05:26:21.082Z,62.38
2022-10-28T05:28:50.438Z,62.20
2022-10-28T05:31:18.480Z,61.48
2022-10-28T05:33:46.301Z,61.02
2022-10-28T05:36:14.060Z,60.03
2022-10-28T05:38:45.558Z,59.41
2022-10-28T05:41:13.479Z,57.03
2022-10-28T05:43:41.242Z,56.31
2022-10-28T05:46:09.620Z,55.77
2022-10-28T05:48:37.484Z,57.52
2022-10-28T05:51:05.368Z,57.59
2022-10-28T05:53:33.216Z,61.01
2022-10-28T05:56:00.981Z,64.20
2022-10-28T05:58:28.986Z,67.10
2022-10-28T06:00:56.814Z,66.71
2022-10-28T06:03:28.627Z,65.34
2022-10-28T06:05:59.303Z,64.96
2022-10-28T06:08:27.660Z,63.45
2022-10-28T06:10:54.018Z,62.03
2022-10-28T06:13:21.982Z,61.48
2022-10-28T06:15:53.842Z,60.77
2022-10-28T06:18:22.220Z,60.32
2022-10-28T06:20:52.240Z,60.26
2022-10-28T06:23:20.984Z,59.68
2022-10-28T06:25:49.084Z,58.66
2022-10-28T06:28:16.922Z,57.15
2022-10-28T06:30:44.735Z,58.32
2022-10-28T06:33:12.912Z,59.37
2022-10-28T06:35:40.777Z,60.44
2022-10-28T06:38:09.578Z,60.48
2022-10-28T06:40:37.537Z,61.77
2022-10-28T06:43:06.236Z,64.93
2022-10-28T06:45:34.298Z,67.97
2022-10-28T06:48:05.482Z,66.57
2022-10-28T06:50:34.721Z,64.97
2022-10-28T06:53:02.692Z,62.99
2022-10-28T06:55:30.762Z,61.84
2022-10-28T06:58:02.059Z,60.87
2022-10-28T07:00:35.071Z,59.28
2022-10-28T07:03:03.839Z,57.24
2022-10-28T07:05:31.756Z,58.29
2022-10-28T07:07:59.623Z,59.59
2022-10-28T07:10:27.397Z,60.91
2022-10-28T07:12:55.458Z,64.77
2022-10-28T07:15:23.840Z,65.90
2022-10-28T07:17:56.009Z,64.33
2022-10-28T07:20:25.196Z,63.22
2022-10-28T07:23:00.754Z,62.70
2022-10-28T07:25:29.851Z,61.65
2022-10-28T07:27:58.854Z,61.83
2022-10-28T07:30:27.503Z,60.89
2022-10-28T07:32:55.941Z,61.31
2022-10-28T07:35:24.550Z,60.88
2022-10-28T07:37:52.359Z,59.62
2022-10-28T07:40:24.300Z,57.83
2022-10-28T07:42:52.434Z,59.02
2022-10-28T07:45:20.884Z,60.71
2022-10-28T07:47:48.877Z,63.82
2022-10-28T07:50:16.603Z,66.59
2022-10-28T07:52:44.641Z,65.64
2022-10-28T07:55:12.770Z,63.05
2022-10-28T07:57:40.538Z,62.77
2022-10-28T08:00:09.287Z,62.15
2022-10-28T08:02:40.464Z,62.18
2022-10-28T08:05:08.700Z,61.28
2022-10-28T08:07:38.681Z,62.41
2022-10-28T08:10:07.898Z,61.52
2022-10-28T08:12:35.993Z,62.11
2022-10-28T08:15:05.160Z,61.90
2022-10-28T08:17:33.120Z,61.51
2022-10-28T08:20:00.916Z,61.32
2022-10-28T08:22:28.746Z,61.04
2022-10-28T08:24:56.512Z,61.37
2022-10-28T08:27:24.254Z,60.08
2022-10-28T08:29:53.570Z,59.46
2022-10-28T08:32:21.302Z,58.81
2022-10-28T08:34:49.225Z,59.75
2022-10-28T08:37:17.121Z,62.23
2022-10-28T08:39:44.932Z,64.18
2022-10-28T08:42:34.105Z,63.35
2022-10-28T08:45:39.805Z,61.43
2022-10-28T08:48:14.592Z,60.79
2022-10-28T08:50:48.862Z,59.51
2022-10-28T08:53:26.288Z,58.31
2022-10-28T08:55:54.462Z,61.09
2022-10-28T08:58:25.592Z,62.88
2022-10-28T09:00:55.634Z,64.58
2022-10-28T09:03:42.327Z,63.06
2022-10-28T09:06:10.470Z,61.07
2022-10-28T09:08:47.099Z,60.45
2022-10-28T09:11:39.568Z,60.11
2022-10-28T09:14:47.348Z,57.87
2022-10-28T09:17:20.877Z,59.81
2022-10-28T09:19:53.755Z,60.63
2022-10-28T09:22:30.463Z,63.66
2022-10-28T09:25:03.787Z,62.56
2022-10-28T09:27:55.954Z,60.90
2022-10-28T09:30:58.422Z,57.35
2022-10-28T09:33:35.122Z,60.02
2022-10-28T09:36:06.375Z,62.82
2022-10-28T09:38:35.271Z,62.26
2022-10-28T09:41:12.167Z,61.06
2022-10-28T09:43:53.741Z,59.17
2022-10-28T09:46:21.518Z,59.50
2022-10-28T09:48:51.598Z,59.77
2022-10-28T09:51:57.477Z,61.67
2022-10-28T09:54:34.304Z,62.08
2022-10-28T09:57:02.417Z,60.84
2022-10-28T09:59:30.195Z,58.23
2022-10-28T10:01:58.041Z,58.92
2022-10-28T10:04:27.400Z,60.29
2022-10-28T10:06:57.911Z,61.94
2022-10-28T10:09:28.256Z,62.15
2022-10-28T10:12:02.577Z,60.47
2022-10-28T10:14:42.789Z,58.57
2022-10-28T10:17:17.032Z,58.89
2022-10-28T10:20:09.987Z,58.92
2022-10-28T10:22:41.953Z,60.48
2022-10-28T10:25:19.022Z,61.10
2022-10-28T10:28:16.449Z,61.86
2022-10-28T10:30:58.940Z,61.82
2022-10-28T10:33:31.193Z,59.39
2022-10-28T10:36:03.296Z,57.10
2022-10-28T10:38:31.643Z,58.41
2022-10-28T10:40:59.455Z,58.08
2022-10-28T10:43:27.276Z,59.88
2022-10-28T10:46:12.511Z,59.65
2022-10-28T10:48:40.283Z,62.55
2022-10-28T10:51:27.459Z,62.45
2022-10-28T10:53:57.373Z,59.85
2022-10-28T10:56:27.705Z,57.93
2022-10-28T10:59:03.546Z,58.27
2022-10-28T11:01:39.227Z,59.26
2022-10-28T11:04:08.643Z,60.53
2022-10-28T11:06:42.198Z,60.86
2022-10-28T11:09:35.720Z,59.67
2022-10-28T11:12:19.605Z,60.22
2022-10-28T11:14:56.756Z,62.30
2022-10-28T11:17:30.046Z,63.34
2022-10-28T11:20:00.165Z,61.95
2022-10-28T11:23:08.500Z,59.50
2022-10-28T11:25:37.408Z,56.33
2022-10-28T11:28:37.017Z,56.37
2022-10-28T11:31:28.895Z,58.52
2022-10-28T11:34:44.632Z,60.27
2022-10-28T11:37:31.851Z,59.91
2022-10-28T11:40:14.975Z,60.12
2022-10-28T11:43:31.274Z,62.22
2022-10-28T11:46:06.316Z,61.33
2022-10-28T11:49:39.163Z,60.65
2022-10-28T11:52:25.189Z,55.07
2022-10-28T11:55:21.935Z,56.02
2022-10-28T11:58:08.643Z,57.81
2022-10-28T12:00:53.912Z,59.26
2022-10-28T12:03:52.820Z,59.58
2022-10-28T12:06:42.305Z,60.04
2022-10-28T12:09:18.851Z,60.08
2022-10-28T12:12:47.279Z,62.16
2022-10-28T12:15:27.597Z,63.74
2022-10-28T12:18:28.330Z,60.64
2022-10-28T12:21:39.917Z,56.53
2022-10-28T12:24:14.895Z,56.63
2022-10-28T12:27:15.357Z,59.68
2022-10-28T12:29:52.434Z,59.46
2022-10-28T12:32:27.704Z,59.21
2022-10-28T12:35:06.811Z,59.56
2022-10-28T12:37:42.110Z,60.27
2022-10-28T12:40:21.402Z,60.96
2022-10-28T12:42:55.382Z,62.72
2022-10-28T12:45:23.484Z,64.46
2022-10-28T12:48:03.544Z,62.85
2022-10-28T12:50:37.386Z,60.43
2022-10-28T12:53:05.074Z,56.97
2022-10-28T12:55:44.505Z,57.85
2022-10-28T12:58:30.225Z,57.47
2022-10-28T13:01:04.906Z,58.10
2022-10-28T13:03:32.713Z,58.90
2022-10-28T13:06:31.644Z,61.40
2022-10-28T13:09:39.288Z,62.20
2022-10-28T13:12:49.466Z,60.87
2022-10-28T13:15:43.647Z,58.71
2022-10-28T13:18:52.167Z,56.29
2022-10-28T13:21:44.607Z,57.94
2022-10-28T13:24:25.516Z,58.37
2022-10-28T13:26:53.301Z,58.68
2022-10-28T13:29:26.430Z,59.77
2022-10-28T13:31:54.310Z,60.53
2022-10-28T13:34:36.559Z,60.86
2022-10-28T13:37:06.415Z,60.85
2022-10-28T13:39:37.347Z,63.67
2022-10-28T13:42:19.663Z,66.10
2022-10-28T13:44:48.585Z,64.43
2022-10-28T13:47:16.453Z,63.57
2022-10-28T13:50:06.702Z,62.81
2022-10-28T13:52:39.482Z,60.34
2022-10-28T13:55:40.811Z,59.20
2022-10-28T13:58:25.814Z,57.79
2022-10-28T14:00:54.593Z,59.55
2022-10-28T14:03:25.972Z,60.24
2022-10-28T14:05:58.419Z,60.76
2022-10-28T14:08:28.681Z,62.15
2022-10-28T14:11:00.820Z,65.50
2022-10-28T14:13:28.950Z,66.24
2022-10-28T14:16:25.506Z,64.68
2022-10-28T14:19:07.522Z,63.35
2022-10-28T14:21:55.245Z,62.11
2022-10-28T14:24:39.384Z,61.29
2022-10-28T14:27:08.195Z,61.23
2022-10-28T14:30:03.271Z,60.59
2022-10-28T14:32:31.033Z,60.28
2022-10-28T14:35:05.959Z,60.33
2022-10-28T14:37:45.915Z,60.05
2022-10-28T14:40:31.391Z,60.03
2022-10-28T14:43:27.818Z,59.79
2022-10-28T14:46:34.402Z,59.79
2022-10-28T14:49:03.295Z,60.01
2022-10-28T14:51:39.046Z,60.40
2022-10-28T14:54:12.539Z,58.92
2022-10-28T14:56:40.300Z,58.98
2022-10-28T14:59:47.181Z,59.25
2022-10-28T15:02:17.809Z,63.74
2022-10-28T15:04:47.441Z,67.20
2022-10-28T15:07:18.367Z,66.46
2022-10-28T15:09:48.932Z,64.94
2022-10-28T15:12:17.466Z,64.23
2022-10-28T15:14:56.186Z,63.15
2022-10-28T15:17:29.386Z,63.48
2022-10-28T15:19:59.779Z,63.36
2022-10-28T15:22:30.846Z,63.59
2022-10-28T15:25:04.850Z,63.50
2022-10-28T15:27:44.086Z,62.70
2022-10-28T15:30:19.131Z,62.74
2022-10-28T15:32:47.034Z,62.47
2022-10-28T15:35:26.960Z,62.90
2022-10-28T15:37:55.248Z,62.49
2022-10-28T15:40:35.599Z,62.72
2022-10-28T15:43:07.511Z,62.53
2022-10-28T15:45:41.218Z,62.11
2022-10-28T15:48:14.729Z,61.63
2022-10-28T15:50:42.459Z,61.64
2022-10-28T15:53:10.192Z,62.07
2022-10-28T15:56:07.041Z,62.57
2022-10-28T15:58:38.019Z,62.65
2022-10-28T16:01:09.939Z,62.59
2022-10-28T16:03:45.134Z,62.75
2022-10-28T16:06:37.371Z,62.22
2022-10-28T16:09:19.882Z,62.28
2022-10-28T16:11:53.293Z,62.12
2022-10-28T16:14:30.358Z,62.43
2022-10-28T16:17:27.564Z,63.08
2022-10-28T16:20:18.930Z,62.48
2022-10-28T16:22:48.740Z,62.17
2022-10-28T16:25:20.203Z,62.29
2022-10-28T16:27:49.384Z,62.20
2022-10-28T16:30:17.511Z,61.82
2022-10-28T16:32:49.317Z,63.08
2022-10-28T16:35:22.047Z,63.10
2022-10-28T16:37:53.938Z,62.95
2022-10-28T16:40:51.105Z,63.68
2022-10-28T16:43:19.942Z,62.77
2022-10-28T16:45:49.094Z,62.58
2022-10-28T16:48:17.614Z,63.22
2022-10-28T16:50:50.091Z,63.58
2022-10-28T16:53:18.116Z,63.56
2022-10-28T16:55:45.986Z,62.14
2022-10-28T16:58:13.954Z,62.80
2022-10-28T17:00:41.957Z,62.59
2022-10-28T17:03:15.102Z,62.38
2022-10-28T17:05:44.108Z,62.45
2022-10-28T17:08:12.085Z,62.48
2022-10-28T17:10:40.763Z,62.67
2022-10-28T17:13:13.131Z,62.38
2022-10-28T17:15:41.667Z,62.01
2022-10-28T17:18:10.422Z,62.05
2022-10-28T17:20:38.667Z,62.89
2022-10-28T17:23:06.499Z,62.78
2022-10-28T17:25:34.388Z,62.36
2022-10-28T17:28:02.422Z,61.75
2022-10-28T17:30:32.651Z,61.55
2022-10-28T17:33:00.519Z,62.59
2022-10-28T17:35:28.491Z,63.05
2022-10-28T17:37:57.329Z,63.14
2022-10-28T17:40:25.397Z,63.80
2022-10-28T17:42:54.635Z,64.80
2022-10-28T17:45:22.554Z,64.47
2022-10-28T17:47:50.383Z,63.75
2022-10-28T17:50:18.219Z,64.42
2022-10-28T17:52:45.940Z,64.03
2022-10-28T17:55:13.707Z,63.33
2022-10-28T17:57:41.658Z,62.94
2022-10-28T18:00:10.586Z,62.49
2022-10-28T18:02:41.268Z,62.69
2022-10-28T18:05:09.794Z,63.02
2022-10-28T18:07:37.546Z,62.79
2022-10-28T18:10:06.461Z,63.20
2022-10-28T18:12:34.294Z,64.39
2022-10-28T18:15:02.054Z,63.37
2022-10-28T18:17:29.768Z,63.80
2022-10-28T18:20:01.684Z,63.35
2022-10-28T18:22:29.649Z,62.96
2022-10-28T18:24:57.769Z,62.91
2022-10-28T18:27:25.584Z,62.52
2022-10-28T18:29:53.454Z,63.23
2022-10-28T18:32:21.213Z,63.89
2022-10-28T18:34:48.969Z,63.67
2022-10-28T18:37:16.756Z,63.42
2022-10-28T18:39:44.607Z,62.70
2022-10-28T18:42:16.631Z,62.99
2022-10-28T18:44:46.723Z,62.80
2022-10-28T18:47:14.554Z,64.46
2022-10-28T18:49:45.511Z,64.39
2022-10-28T18:52:15.711Z,64.37
2022-10-28T18:54:43.576Z,64.04
2022-10-28T18:57:11.274Z,64.62
2022-10-28T18:59:52.394Z,64.28
2022-10-28T19:02:28.670Z,63.80
2022-10-28T19:04:58.215Z,64.33
2022-10-28T19:07:25.962Z,63.81
2022-10-28T19:09:53.714Z,63.97
2022-10-28T19:12:25.670Z,64.06
2022-10-28T19:14:53.408Z,64.14
2022-10-28T19:17:21.190Z,64.11
2022-10-28T19:19:49.249Z,65.59
2022-10-28T19:22:18.009Z,65.27
2022-10-28T19:24:45.923Z,64.52
2022-10-28T19:27:13.786Z,65.13
2022-10-28T19:29:41.622Z,64.21
2022-10-28T19:32:09.384Z,64.43
2022-10-28T19:34:37.279Z,65.26
2022-10-28T19:37:05.280Z,65.85
2022-10-28T19:39:33.016Z,65.08
2022-10-28T19:42:00.952Z,65.49
2022-10-28T19:44:28.954Z,65.60
2022-10-28T19:46:56.712Z,64.89
2022-10-28T19:49:27.852Z,65.19
2022-10-28T19:51:57.533Z,64.35
2022-10-28T19:54:25.312Z,65.15
2022-10-28T19:56:53.089Z,65.30
2022-10-28T19:59:21.467Z,65.08
2022-10-28T20:01:50.157Z,65.08
2022-10-28T20:04:18.352Z,65.17
2022-10-28T20:06:46.157Z,64.85
2022-10-28T20:09:13.954Z,65.26
2022-10-28T20:11:41.820Z,65.10
2022-10-28T20:14:12.011Z,64.62
2022-10-28T20:16:46.141Z,64.10
2022-10-28T20:19:14.384Z,63.92
2022-10-28T20:21:42.616Z,64.09
2022-10-28T20:24:10.481Z,64.43
2022-10-28T20:26:38.726Z,64.29
2022-10-28T20:29:10.254Z,64.35
2022-10-28T20:31:41.233Z,63.60
2022-10-28T20:34:09.030Z,63.53
2022-10-28T20:36:41.571Z,63.81
2022-10-28T20:39:17.648Z,65.08
2022-10-28T20:41:47.337Z,64.95
2022-10-28T20:44:15.780Z,65.02
2022-10-28T20:46:45.237Z,64.83
2022-10-28T20:49:13.495Z,64.98
2022-10-28T20:51:41.565Z,64.88
2022-10-28T20:54:09.519Z,65.37
2022-10-28T20:56:38.418Z,65.41
2022-10-28T20:59:06.287Z,65.67
2022-10-28T21:01:36.931Z,65.32
2022-10-28T21:04:09.955Z,65.25
2022-10-28T21:06:39.325Z,64.98
2022-10-28T21:09:07.951Z,64.99
2022-10-28T21:11:35.700Z,65.09
2022-10-28T21:14:03.409Z,65.23
2022-10-28T21:16:31.489Z,65.37
2022-10-28T21:18:59.661Z,65.05
2022-10-28T21:21:27.731Z,65.51
2022-10-28T21:23:58.517Z,64.86
2022-10-28T21:26:27.477Z,65.04
2022-10-28T21:28:56.625Z,65.38
2022-10-28T21:31:24.718Z,65.36
2022-10-28T21:33:53.685Z,65.15
2022-10-28T21:36:21.991Z,65.78
2022-10-28T21:38:54.542Z,65.65
2022-10-28T21:41:22.432Z,66.74
2022-10-28T21:43:51.527Z,66.54
2022-10-28T21:46:20.066Z,66.62
2022-10-28T21:48:47.870Z,66.66
2022-10-28T21:51:16.453Z,67.27
2022-10-28T21:53:44.838Z,66.75
2022-10-28T21:56:18.816Z,66.45
2022-10-28T21:58:49.209Z,67.30
2022-10-28T22:01:19.972Z,66.76
2022-10-28T22:03:47.764Z,66.81
2022-10-28T22:06:15.547Z,66.56
2022-10-28T22:08:43.394Z,65.47
2022-10-28T22:11:19.305Z,65.69
2022-10-28T22:14:01.169Z,65.92
2022-10-28T22:16:31.327Z,65.46
2022-10-28T22:19:00.519Z,66.12
2022-10-28T22:21:30.268Z,66.01
2022-10-28T22:23:58.033Z,66.05
2022-10-28T22:26:28.710Z,65.95
2022-10-28T22:28:57.270Z,65.61
2022-10-28T22:31:27.919Z,65.29
2022-10-28T22:33:57.050Z,65.55
2022-10-28T22:36:26.926Z,65.53
2022-10-28T22:38:54.827Z,65.70
2022-10-28T22:41:27.309Z,65.58
2022-10-28T22:43:59.809Z,65.01
2022-10-28T22:46:31.562Z,65.43
2022-10-28T22:48:59.528Z,65.55
2022-10-28T22:51:27.393Z,66.03
2022-10-28T22:53:55.323Z,65.98
2022-10-28T22:56:24.657Z,66.14
2022-10-28T22:58:55.041Z,65.93
2022-10-28T23:01:23.396Z,66.33
2022-10-28T23:03:52.865Z,66.01
2022-10-28T23:06:26.099Z,65.72
2022-10-28T23:08:54.142Z,65.38
2022-10-28T23:11:22.217Z,65.21
2022-10-28T23:13:52.438Z,65.07
2022-10-28T23:16:20.294Z,65.54
2022-10-28T23:18:48.895Z,65.85
2022-10-28T23:21:24.717Z,65.67
2022-10-28T23:23:57.125Z,65.22
2022-10-28T23:26:26.022Z,65.43
2022-10-28T23:28:56.502Z,65.47
2022-10-28T23:31:24.241Z,64.81
2022-10-28T23:33:53.358Z,64.71
2022-10-28T23:36:21.447Z,64.82
2022-10-28T23:38:49.223Z,64.64
2022-10-28T23:41:18.910Z,64.91
2022-10-28T23:43:47.433Z,65.84
2022-10-28T23:46:15.452Z,65.74
2022-10-28T23:48:43.154Z,66.00
2022-10-28T23:51:10.879Z,65.56
2022-10-28T23:53:38.639Z,65.76
2022-10-28T23:56:07.325Z,65.86
2022-10-28T23:58:35.074Z,65.62
